Terminal Aerodrome Forecast
Issued by NWS

Home | Current Version | Previous Version | Text Only | Print | Product List | Glossary On
Versions: 1 2 3 4 5 6 7 8 9 10 11 12
000
FTUS45 KABQ 291100
TAFLVS
TAF
KLVS 291127Z 2912/3012 07006KT P6SM SKC
     FM291500 23011KT P6SM FEW120
     FM292200 23014G24KT P6SM SCT120
     FM300100 18009KT P6SM SCT100
     FM300400 06010KT P6SM OVC025
     FM300800 09011KT P6SM OVC007=

USA.gov is the U.S. government's official web portal to all federal, state and local government web resources and services.